createdAt,value
2022-08-07T00:00:11.066Z,55.29
2022-08-07T00:01:43.221Z,55.33
2022-08-07T00:02:36.755Z,55.25
2022-08-07T00:03:13.205Z,55.29
2022-08-07T00:04:11.405Z,55.38
2022-08-07T00:05:11.253Z,55.33
2022-08-07T00:06:11.062Z,55.42
2022-08-07T00:07:11.063Z,55.40
2022-08-07T00:08:11.070Z,55.42
2022-08-07T00:09:16.169Z,55.50
2022-08-07T00:10:27.300Z,55.68
2022-08-07T00:11:13.071Z,55.63
2022-08-07T00:12:16.396Z,55.66
2022-08-07T00:13:23.826Z,55.75
2022-08-07T00:14:13.163Z,55.69
2022-08-07T00:15:11.061Z,55.86
2022-08-07T00:16:11.067Z,56.04
2022-08-07T00:17:13.174Z,56.03
2022-08-07T00:18:19.789Z,56.02
2022-08-07T00:19:21.309Z,56.37
2022-08-07T00:20:15.655Z,56.23
2022-08-07T00:21:56.445Z,56.31
2022-08-07T00:22:13.148Z,56.28
2022-08-07T00:23:14.206Z,56.31
2022-08-07T00:24:11.073Z,56.47
2022-08-07T00:25:16.788Z,56.51
2022-08-07T00:26:31.144Z,56.64
2022-08-07T00:27:13.265Z,56.67
2022-08-07T00:28:11.054Z,56.59
2022-08-07T00:29:11.057Z,56.59
2022-08-07T00:30:21.593Z,56.48
2022-08-07T00:31:16.537Z,56.45
2022-08-07T00:32:11.065Z,56.57
2022-08-07T00:33:11.058Z,56.57
2022-08-07T00:34:11.053Z,56.69
2022-08-07T00:35:11.056Z,56.80
2022-08-07T00:36:13.175Z,56.83
2022-08-07T00:37:11.058Z,56.76
2022-08-07T00:38:11.059Z,56.79
2022-08-07T00:39:12.863Z,56.75
2022-08-07T00:40:14.066Z,56.78
2022-08-07T00:41:14.863Z,56.86
2022-08-07T00:42:11.058Z,56.97
2022-08-07T00:43:59.387Z,57.15
2022-08-07T00:44:15.214Z,57.27
2022-08-07T00:45:16.394Z,57.19
2022-08-07T00:46:13.142Z,57.21
2022-08-07T00:47:15.852Z,57.19
2022-08-07T00:48:13.290Z,57.34
2022-08-07T00:49:11.060Z,57.43
2022-08-07T00:50:19.781Z,57.62
2022-08-07T00:51:13.158Z,57.67
2022-08-07T00:52:11.058Z,57.61
2022-08-07T00:53:11.060Z,57.92
2022-08-07T00:54:11.061Z,57.89
2022-08-07T00:55:11.070Z,57.89
2022-08-07T00:56:14.012Z,57.87
2022-08-07T00:57:11.068Z,57.87
2022-08-07T00:58:11.058Z,57.88
2022-08-07T00:59:11.064Z,57.89
2022-08-07T01:00:11.067Z,57.93
2022-08-07T01:01:11.167Z,58.10
2022-08-07T01:02:27.800Z,58.03
2022-08-07T01:03:13.165Z,58.02
2022-08-07T01:04:11.063Z,58.12
2022-08-07T01:05:19.180Z,58.21
2022-08-07T01:06:13.179Z,58.33
2022-08-07T01:07:11.064Z,58.40
2022-08-07T01:08:11.062Z,58.40
2022-08-07T01:09:11.060Z,58.59
2022-08-07T01:10:13.167Z,58.74
2022-08-07T01:12:04.851Z,58.80
2022-08-07T01:12:29.192Z,58.73
2022-08-07T01:13:13.141Z,58.87
2022-08-07T01:14:11.062Z,58.89
2022-08-07T01:15:12.001Z,58.94
2022-08-07T01:16:13.107Z,59.03
2022-08-07T01:17:13.111Z,59.12
2022-08-07T01:18:11.064Z,59.18
2022-08-07T01:19:19.295Z,59.16
2022-08-07T01:20:16.766Z,59.20
2022-08-07T01:21:22.801Z,59.25
2022-08-07T01:22:16.202Z,59.26
2022-08-07T01:23:13.163Z,59.23
2022-08-07T01:24:11.058Z,59.30
2022-08-07T01:25:40.448Z,59.45
2022-08-07T01:26:13.193Z,59.32
2022-08-07T01:27:19.683Z,59.23
2022-08-07T01:28:13.173Z,59.27
2022-08-07T01:29:11.053Z,59.20
2022-08-07T01:30:11.060Z,59.12
2022-08-07T01:31:11.059Z,59.30
2022-08-07T01:32:12.368Z,59.31
2022-08-07T01:33:11.058Z,59.59
2022-08-07T01:34:11.061Z,59.51
2022-08-07T01:35:11.057Z,59.59
2022-08-07T01:36:15.091Z,59.49
2022-08-07T01:37:11.065Z,59.59
2022-08-07T01:38:11.056Z,59.62
2022-08-07T01:39:11.120Z,59.82
2022-08-07T01:40:14.806Z,59.80
2022-08-07T01:41:11.059Z,59.82
2022-08-07T01:42:38.579Z,59.85
2022-08-07T01:43:13.361Z,59.94
2022-08-07T01:44:11.067Z,60.01
2022-08-07T01:45:18.219Z,59.91
2022-08-07T01:46:13.329Z,59.96
2022-08-07T01:48:16.486Z,60.21
2022-08-07T01:48:21.278Z,60.18
2022-08-07T01:49:13.140Z,60.14
2022-08-07T01:50:11.060Z,60.17
2022-08-07T01:51:58.768Z,60.24
2022-08-07T01:52:13.303Z,60.28
2022-08-07T01:53:21.125Z,60.29
2022-08-07T01:54:33.354Z,60.45
2022-08-07T01:55:22.498Z,60.48
2022-08-07T01:56:18.150Z,60.50
2022-08-07T01:57:20.422Z,60.60
2022-08-07T01:58:27.824Z,60.69
2022-08-07T01:59:17.160Z,60.77
2022-08-07T02:00:12.829Z,60.98
2022-08-07T02:01:25.512Z,61.15
2022-08-07T02:02:32.737Z,61.18
2022-08-07T02:03:21.170Z,61.21
2022-08-07T02:04:23.350Z,61.21
2022-08-07T02:05:47.891Z,61.21
2022-08-07T02:06:30.737Z,61.46
2022-08-07T02:07:13.120Z,61.52
2022-08-07T02:08:17.064Z,61.46
2022-08-07T02:09:52.402Z,61.42
2022-08-07T02:10:14.521Z,61.41
2022-08-07T02:11:11.068Z,61.45
2022-08-07T02:12:18.149Z,61.29
2022-08-07T02:13:11.065Z,61.41
2022-08-07T02:14:11.065Z,61.46
2022-08-07T02:15:13.068Z,61.52
2022-08-07T02:16:11.818Z,61.57
2022-08-07T02:17:12.065Z,61.50
2022-08-07T02:18:12.111Z,61.68
2022-08-07T02:20:07.732Z,61.56
2022-08-07T02:20:17.096Z,61.56
2022-08-07T02:21:16.206Z,61.66
2022-08-07T02:22:14.154Z,61.71
2022-08-07T02:23:11.691Z,61.56
2022-08-07T02:24:11.060Z,61.59
2022-08-07T02:25:13.850Z,61.60
2022-08-07T02:26:33.082Z,61.50
2022-08-07T02:27:13.130Z,61.49
2022-08-07T02:28:11.380Z,61.47
2022-08-07T02:29:13.741Z,61.54
2022-08-07T02:30:11.060Z,61.50
2022-08-07T02:31:29.074Z,61.69
2022-08-07T02:32:13.349Z,61.59
2022-08-07T02:33:11.067Z,61.86
2022-08-07T02:34:16.842Z,61.73
2022-08-07T02:35:13.162Z,61.82
2022-08-07T02:36:28.341Z,61.73
2022-08-07T02:37:14.148Z,61.81
2022-08-07T02:38:11.068Z,61.77
2022-08-07T02:39:17.208Z,61.71
2022-08-07T02:40:29.993Z,61.89
2022-08-07T02:41:13.189Z,62.04
2022-08-07T02:42:14.793Z,61.97
2022-08-07T02:43:11.061Z,61.99
2022-08-07T02:44:11.065Z,62.07
2022-08-07T02:45:58.788Z,62.06
2022-08-07T02:46:13.164Z,62.04
2022-08-07T02:47:19.699Z,62.05
2022-08-07T02:48:15.557Z,61.96
2022-08-07T02:49:11.068Z,62.03
2022-08-07T02:50:13.126Z,61.88
2022-08-07T02:51:14.325Z,61.95
2022-08-07T02:52:15.229Z,61.93
2022-08-07T02:53:16.145Z,62.03
2022-08-07T02:54:11.065Z,62.07
2022-08-07T02:55:15.306Z,61.99
2022-08-07T02:56:21.081Z,61.93
2022-08-07T02:57:17.159Z,61.96
2022-08-07T02:58:13.066Z,62.02
2022-08-07T02:59:11.060Z,62.06
2022-08-07T03:00:11.778Z,62.21
2022-08-07T03:01:18.605Z,62.20
2022-08-07T03:02:13.217Z,62.26
2022-08-07T03:03:13.605Z,62.22
2022-08-07T03:04:12.472Z,62.36
2022-08-07T03:05:11.065Z,62.32
2022-08-07T03:06:16.381Z,62.47
2022-08-07T03:07:13.110Z,62.39
2022-08-07T03:08:11.408Z,62.42
2022-08-07T03:09:11.628Z,62.49
2022-08-07T03:10:11.066Z,62.46
2022-08-07T03:11:11.075Z,62.68
2022-08-07T03:12:16.196Z,62.73
2022-08-07T03:13:13.177Z,62.69
2022-08-07T03:14:11.066Z,62.91
2022-08-07T03:15:12.027Z,62.76
2022-08-07T03:16:11.062Z,62.78
2022-08-07T03:17:11.066Z,62.78
2022-08-07T03:18:11.071Z,62.90
2022-08-07T03:19:13.709Z,62.85
2022-08-07T03:20:11.066Z,62.96
2022-08-07T03:21:11.363Z,63.03
2022-08-07T03:22:18.821Z,63.01
2022-08-07T03:23:18.945Z,62.97
2022-08-07T03:24:20.686Z,63.02
2022-08-07T03:25:13.146Z,63.09
2022-08-07T03:26:20.956Z,63.18
2022-08-07T03:27:13.149Z,63.34
2022-08-07T03:28:38.519Z,63.34
2022-08-07T03:29:14.898Z,63.19
2022-08-07T03:30:11.066Z,63.16
2022-08-07T03:31:15.058Z,63.07
2022-08-07T03:32:13.504Z,63.12
2022-08-07T03:33:11.061Z,63.13
2022-08-07T03:34:11.060Z,62.95
2022-08-07T03:35:18.641Z,62.90
2022-08-07T03:36:13.068Z,62.92
2022-08-07T03:37:11.988Z,62.84
2022-08-07T03:38:11.061Z,62.79
2022-08-07T03:39:13.091Z,62.87
2022-08-07T03:40:15.494Z,62.76
2022-08-07T03:41:13.159Z,62.73
2022-08-07T03:42:11.059Z,62.66
2022-08-07T03:43:13.624Z,62.64
2022-08-07T03:44:11.067Z,62.82
2022-08-07T03:45:11.064Z,62.87
2022-08-07T03:46:18.485Z,62.87
2022-08-07T03:47:14.722Z,62.94
2022-08-07T03:48:11.607Z,63.03
2022-08-07T03:49:11.061Z,63.09
2022-08-07T03:50:13.133Z,63.07
2022-08-07T03:51:11.063Z,63.29
2022-08-07T03:52:22.919Z,63.48
2022-08-07T03:53:13.373Z,63.40
2022-08-07T03:54:36.484Z,63.44
2022-08-07T03:55:13.144Z,63.56
2022-08-07T03:56:13.764Z,63.67
2022-08-07T03:57:11.061Z,63.82
2022-08-07T03:58:35.293Z,63.85
2022-08-07T03:59:15.489Z,63.88
2022-08-07T04:00:11.060Z,63.88
2022-08-07T04:01:11.554Z,63.97
2022-08-07T04:02:11.069Z,64.11
2022-08-07T04:03:11.064Z,63.99
2022-08-07T04:04:11.059Z,63.90
2022-08-07T04:05:13.166Z,63.93
2022-08-07T04:06:11.063Z,64.14
2022-08-07T04:07:17.329Z,64.12
2022-08-07T04:08:13.065Z,64.13
2022-08-07T04:09:15.323Z,64.08
2022-08-07T04:10:15.641Z,64.06
2022-08-07T04:12:23.653Z,64.13
2022-08-07T04:12:26.622Z,64.17
2022-08-07T04:13:17.140Z,64.24
2022-08-07T04:14:37.473Z,64.23
2022-08-07T04:15:13.227Z,64.20
2022-08-07T04:16:11.067Z,64.18
2022-08-07T04:17:20.108Z,64.16
2022-08-07T04:18:58.697Z,63.99
2022-08-07T04:19:15.384Z,63.90
2022-08-07T04:20:13.064Z,63.89
2022-08-07T04:21:11.065Z,63.77
2022-08-07T04:22:13.325Z,63.78
2022-08-07T04:23:19.226Z,63.75
2022-08-07T04:24:30.576Z,63.72
2022-08-07T04:25:13.157Z,63.61
2022-08-07T04:26:11.062Z,63.54
2022-08-07T04:27:15.234Z,63.54
2022-08-07T04:28:13.378Z,63.61
2022-08-07T04:29:11.167Z,63.74
2022-08-07T04:30:21.341Z,63.55
2022-08-07T04:31:19.651Z,63.71
2022-08-07T04:32:13.155Z,63.62
2022-08-07T04:33:11.417Z,63.57
2022-08-07T04:34:16.649Z,63.56
2022-08-07T04:35:13.098Z,63.53
2022-08-07T04:36:12.068Z,63.48
2022-08-07T04:37:20.250Z,63.43
2022-08-07T04:38:13.577Z,63.49
2022-08-07T04:39:11.133Z,63.54
2022-08-07T04:40:11.061Z,63.52
2022-08-07T04:41:18.170Z,63.52
2022-08-07T04:42:13.140Z,63.55
2022-08-07T04:43:11.070Z,63.51
2022-08-07T04:44:18.618Z,63.55
2022-08-07T04:45:13.163Z,63.71
2022-08-07T04:46:29.638Z,63.83
2022-08-07T04:47:23.465Z,63.89
2022-08-07T04:48:18.297Z,64.17
2022-08-07T04:49:18.371Z,64.24
2022-08-07T04:50:19.124Z,64.37
2022-08-07T04:51:19.061Z,64.64
2022-08-07T04:52:21.063Z,64.79
2022-08-07T04:53:40.170Z,64.78
2022-08-07T04:54:29.909Z,64.70
2022-08-07T04:58:11.959Z,64.70
2022-08-07T04:58:12.101Z,64.53
2022-08-07T04:58:14.163Z,64.58
2022-08-07T04:58:33.708Z,64.67
2022-08-07T05:00:12.729Z,64.56
2022-08-07T05:00:30.200Z,64.48
2022-08-07T05:01:21.293Z,64.44
2022-08-07T05:02:20.597Z,64.46
2022-08-07T05:03:38.755Z,64.37
2022-08-07T05:04:23.326Z,64.43
2022-08-07T05:05:52.791Z,64.25
2022-08-07T05:06:20.111Z,64.17
2022-08-07T05:07:30.397Z,64.09
2022-08-07T05:08:19.129Z,64.17
2022-08-07T05:09:18.123Z,64.23
2022-08-07T05:10:15.367Z,64.29
2022-08-07T05:11:19.417Z,64.27
2022-08-07T05:12:13.254Z,64.21
2022-08-07T05:14:53.264Z,64.07
2022-08-07T05:14:55.794Z,64.02
2022-08-07T05:15:25.264Z,63.96
2022-08-07T05:16:14.064Z,63.96
2022-08-07T05:17:11.830Z,64.10
2022-08-07T05:18:19.067Z,64.14
2022-08-07T05:19:14.072Z,64.02
2022-08-07T05:20:13.063Z,63.94
2022-08-07T05:21:14.635Z,64.09
2022-08-07T05:22:11.073Z,64.05
2022-08-07T05:23:17.087Z,64.23
2022-08-07T05:24:12.059Z,64.28
2022-08-07T05:25:25.956Z,64.26
2022-08-07T05:26:24.422Z,64.12
2022-08-07T05:28:03.324Z,64.24
2022-08-07T05:28:20.833Z,64.07
2022-08-07T05:29:13.136Z,63.94
2022-08-07T05:30:11.064Z,64.13
2022-08-07T05:31:12.057Z,64.00
2022-08-07T05:32:11.056Z,63.89
2022-08-07T05:33:11.077Z,63.93
2022-08-07T05:34:12.168Z,64.08
2022-08-07T05:35:11.058Z,64.10
2022-08-07T05:36:12.108Z,63.93
2022-08-07T05:37:11.061Z,63.79
2022-08-07T05:38:11.070Z,63.78
2022-08-07T05:40:13.675Z,63.76
2022-08-07T05:40:18.716Z,63.76
2022-08-07T05:41:15.687Z,63.88
2022-08-07T05:42:12.104Z,63.79
2022-08-07T05:43:11.635Z,63.71
2022-08-07T05:44:11.921Z,63.73
2022-08-07T05:45:25.742Z,63.71
2022-08-07T05:46:13.090Z,63.62
2022-08-07T05:47:11.817Z,63.61
2022-08-07T05:48:13.125Z,63.67
2022-08-07T05:49:12.459Z,63.89
2022-08-07T05:50:11.077Z,63.93
2022-08-07T05:51:11.061Z,63.97
2022-08-07T05:52:11.599Z,63.81
2022-08-07T05:54:12.866Z,63.83
2022-08-07T05:54:31.452Z,63.87
2022-08-07T05:55:13.211Z,63.88
2022-08-07T05:56:12.489Z,63.95
2022-08-07T05:57:11.062Z,63.86
2022-08-07T05:58:11.077Z,63.84
2022-08-07T05:59:16.068Z,63.80
2022-08-07T06:00:16.616Z,63.79
2022-08-07T06:01:13.280Z,64.06
2022-08-07T06:02:13.108Z,63.80
2022-08-07T06:03:13.119Z,63.66
2022-08-07T06:04:11.063Z,63.62
2022-08-07T06:05:15.653Z,63.64
2022-08-07T06:06:11.071Z,63.55
2022-08-07T06:07:22.790Z,63.35
2022-08-07T06:08:29.750Z,63.28
2022-08-07T06:09:13.150Z,63.28
2022-08-07T06:10:11.337Z,63.29
2022-08-07T06:11:11.065Z,63.17
2022-08-07T06:12:11.061Z,63.20
2022-08-07T06:13:13.709Z,63.11
2022-08-07T06:14:21.383Z,63.04
2022-08-07T06:15:16.237Z,63.06
2022-08-07T06:16:13.483Z,62.96
2022-08-07T06:17:11.072Z,62.99
2022-08-07T06:18:11.068Z,63.10
2022-08-07T06:19:17.652Z,63.13
2022-08-07T06:20:25.502Z,62.97
2022-08-07T06:22:14.717Z,62.91
2022-08-07T06:22:22.647Z,63.19
2022-08-07T06:23:46.870Z,63.28
2022-08-07T06:24:39.212Z,63.11
2022-08-07T06:25:13.144Z,63.12
2022-08-07T06:26:13.059Z,63.08
2022-08-07T06:27:11.055Z,62.96
2022-08-07T06:28:14.895Z,62.85
2022-08-07T06:29:11.066Z,62.88
2022-08-07T06:30:32.257Z,62.96
2022-08-07T06:31:13.206Z,62.77
2022-08-07T06:32:11.065Z,62.61
2022-08-07T06:33:16.350Z,62.69
2022-08-07T06:34:13.354Z,62.60
2022-08-07T06:35:17.967Z,62.68
2022-08-07T06:36:14.198Z,62.79
2022-08-07T06:37:17.160Z,62.64
2022-08-07T06:38:19.823Z,62.62
2022-08-07T06:40:16.774Z,62.58
2022-08-07T06:40:20.447Z,62.46
2022-08-07T06:41:47.613Z,62.36
2022-08-07T06:42:33.147Z,62.37
2022-08-07T06:43:20.939Z,62.25
2022-08-07T06:44:14.204Z,62.29
2022-08-07T06:45:13.060Z,62.25
2022-08-07T06:46:13.267Z,62.21
2022-08-07T06:47:15.194Z,62.11
2022-08-07T06:48:11.423Z,62.05
2022-08-07T06:49:11.067Z,62.04
2022-08-07T06:50:11.072Z,62.02
2022-08-07T06:51:12.063Z,62.04
2022-08-07T06:52:11.069Z,61.94
2022-08-07T06:53:49.290Z,61.87
2022-08-07T06:55:33.047Z,61.75
2022-08-07T06:55:33.712Z,61.76
2022-08-07T06:56:15.390Z,61.70
2022-08-07T06:57:11.063Z,61.57
2022-08-07T06:58:12.059Z,61.58
2022-08-07T07:00:12.089Z,61.48
2022-08-07T07:00:18.199Z,61.40
2022-08-07T07:01:14.288Z,61.31
2022-08-07T07:02:15.109Z,61.21
2022-08-07T07:03:14.386Z,61.13
2022-08-07T07:04:28.152Z,61.00
2022-08-07T07:05:13.102Z,60.86
2022-08-07T07:06:11.556Z,60.66
2022-08-07T07:07:19.426Z,60.55
2022-08-07T07:08:18.656Z,60.41
2022-08-07T07:09:21.105Z,60.36
2022-08-07T07:10:11.063Z,60.27
2022-08-07T07:11:14.515Z,60.13
2022-08-07T07:12:26.688Z,60.03
2022-08-07T07:13:56.710Z,59.88
2022-08-07T07:14:13.987Z,59.79
2022-08-07T07:15:23.883Z,59.63
2022-08-07T07:16:19.504Z,59.49
2022-08-07T07:17:19.071Z,59.30
2022-08-07T07:18:33.112Z,59.09
2022-08-07T07:19:55.799Z,58.89
2022-08-07T07:20:20.198Z,58.76
2022-08-07T07:21:19.421Z,58.50
2022-08-07T07:22:33.975Z,58.44
2022-08-07T07:24:10.324Z,58.44
2022-08-07T07:24:13.171Z,58.30
2022-08-07T07:26:31.304Z,58.35
2022-08-07T07:26:34.683Z,58.22
2022-08-07T07:27:13.113Z,58.19
2022-08-07T07:28:42.406Z,58.04
2022-08-07T07:29:57.079Z,57.91
2022-08-07T07:30:13.221Z,57.83
2022-08-07T07:31:21.567Z,57.74
2022-08-07T07:32:11.063Z,57.70
2022-08-07T07:33:14.058Z,57.72
2022-08-07T07:34:12.067Z,57.54
2022-08-07T07:35:11.063Z,57.29
2022-08-07T07:36:13.456Z,57.19
2022-08-07T07:37:21.838Z,57.06
2022-08-07T07:38:13.200Z,56.97
2022-08-07T07:39:11.100Z,56.97
2022-08-07T07:40:16.152Z,56.90
2022-08-07T07:41:11.087Z,56.81
2022-08-07T07:42:14.043Z,56.76
2022-08-07T07:43:15.031Z,56.65
2022-08-07T07:44:14.614Z,56.48
2022-08-07T07:45:13.156Z,56.38
2022-08-07T07:46:37.148Z,56.26
2022-08-07T07:47:23.000Z,56.22
2022-08-07T07:48:34.805Z,56.11
2022-08-07T07:50:33.019Z,55.93
2022-08-07T07:50:33.456Z,56.09
2022-08-07T07:51:13.119Z,55.95
2022-08-07T07:52:11.064Z,55.83
2022-08-07T07:53:20.499Z,55.83
2022-08-07T07:54:14.167Z,55.94
2022-08-07T07:55:11.527Z,55.80
2022-08-07T07:56:11.060Z,55.92
2022-08-07T07:57:11.210Z,55.85
2022-08-07T07:58:11.062Z,55.75
2022-08-07T07:59:11.073Z,55.71
2022-08-07T08:00:11.061Z,55.64
2022-08-07T08:02:02.341Z,55.59
2022-08-07T08:02:13.354Z,55.51
2022-08-07T08:03:16.324Z,55.41
2022-08-07T08:04:11.991Z,55.28
2022-08-07T08:05:14.461Z,55.25
2022-08-07T08:06:11.675Z,55.02
2022-08-07T08:07:11.058Z,54.91
2022-08-07T08:08:35.776Z,54.82
2022-08-07T08:09:13.501Z,54.78
2022-08-07T08:10:14.935Z,54.67
2022-08-07T08:11:16.600Z,54.65
2022-08-07T08:12:22.601Z,54.50
2022-08-07T08:13:15.360Z,54.31
2022-08-07T08:14:11.064Z,54.14
2022-08-07T08:15:11.065Z,54.15
2022-08-07T08:16:12.732Z,53.99
2022-08-07T08:17:14.208Z,53.92
2022-08-07T08:18:17.270Z,53.82
2022-08-07T08:19:18.013Z,53.71
2022-08-07T08:20:17.329Z,53.60
2022-08-07T08:21:13.155Z,53.48
2022-08-07T08:22:15.064Z,53.38
2022-08-07T08:23:15.058Z,53.30
2022-08-07T08:24:34.322Z,53.14
2022-08-07T08:25:25.075Z,52.92
2022-08-07T08:26:17.250Z,52.84
2022-08-07T08:27:13.054Z,52.70
2022-08-07T08:28:17.029Z,52.47
2022-08-07T08:29:14.056Z,52.32
2022-08-07T08:30:14.122Z,52.18
2022-08-07T08:31:16.261Z,52.09
2022-08-07T08:32:18.880Z,51.94
2022-08-07T08:33:16.063Z,51.71
2022-08-07T08:34:12.428Z,51.55
2022-08-07T08:35:14.125Z,51.41
2022-08-07T08:36:11.063Z,51.36
2022-08-07T08:38:01.186Z,51.19
2022-08-07T08:38:14.156Z,51.15
2022-08-07T08:39:11.105Z,50.90
2022-08-07T08:40:16.396Z,50.68
2022-08-07T08:41:24.333Z,50.45
2022-08-07T08:42:25.821Z,50.29
2022-08-07T08:43:21.074Z,50.07
2022-08-07T08:44:29.245Z,49.85
2022-08-07T08:45:21.090Z,49.71
2022-08-07T08:46:21.911Z,49.68
2022-08-07T08:47:20.138Z,49.50
2022-08-07T08:48:19.064Z,49.32
2022-08-07T08:49:32.712Z,49.09
2022-08-07T08:50:34.910Z,48.88
2022-08-07T08:51:49.160Z,48.66
2022-08-07T08:52:20.283Z,48.52
2022-08-07T08:53:19.063Z,48.41
2022-08-07T08:54:16.069Z,48.31
2022-08-07T08:55:21.256Z,48.01
2022-08-07T08:56:24.472Z,47.76
2022-08-07T08:57:17.058Z,47.75
2022-08-07T08:58:20.371Z,47.69
2022-08-07T08:59:21.271Z,47.51
2022-08-07T09:00:11.072Z,47.50
2022-08-07T09:01:19.069Z,47.30
2022-08-07T09:02:34.740Z,47.19
2022-08-07T09:03:23.273Z,47.09
2022-08-07T09:04:18.236Z,47.00
2022-08-07T09:05:36.999Z,46.80
2022-08-07T09:06:19.106Z,46.65
2022-08-07T09:07:27.097Z,46.42
2022-08-07T09:08:28.200Z,46.17
2022-08-07T09:09:23.799Z,46.10
2022-08-07T09:10:25.264Z,45.92
2022-08-07T09:11:24.507Z,45.70
2022-08-07T09:12:31.130Z,45.62
2022-08-07T09:13:37.109Z,45.42
2022-08-07T09:14:18.098Z,45.24
2022-08-07T09:16:24.754Z,45.17
2022-08-07T09:16:29.833Z,45.22
2022-08-07T09:17:23.088Z,45.06
2022-08-07T09:18:22.660Z,44.78
2022-08-07T09:19:51.866Z,44.62
2022-08-07T09:20:34.833Z,44.41
2022-08-07T09:21:58.277Z,44.67
2022-08-07T09:24:28.145Z,44.46
2022-08-07T09:24:31.525Z,44.35
2022-08-07T09:24:33.684Z,44.48
2022-08-07T09:25:20.420Z,44.28
2022-08-07T09:26:20.812Z,44.09
2022-08-07T09:27:19.071Z,44.04
2022-08-07T09:30:02.368Z,44.13
2022-08-07T09:30:06.698Z,43.95
2022-08-07T09:30:14.204Z,43.80
2022-08-07T09:31:23.187Z,43.57
2022-08-07T09:32:21.111Z,43.46
2022-08-07T09:33:41.300Z,43.36
2022-08-07T09:34:20.877Z,43.22
2022-08-07T09:36:04.306Z,43.04
2022-08-07T09:36:21.265Z,42.76
2022-08-07T09:37:21.299Z,42.66
2022-08-07T09:38:23.374Z,42.54
2022-08-07T09:39:54.076Z,42.35
2022-08-07T09:40:23.340Z,42.22
2022-08-07T09:41:19.062Z,42.05
2022-08-07T09:42:23.131Z,41.81
2022-08-07T09:43:19.058Z,41.80
2022-08-07T09:44:30.239Z,41.91
2022-08-07T09:47:24.255Z,41.77
2022-08-07T09:47:24.706Z,41.73
2022-08-07T09:47:49.519Z,41.71
2022-08-07T09:48:29.785Z,41.42
2022-08-07T09:50:00.761Z,41.45
2022-08-07T09:50:23.218Z,41.51
2022-08-07T09:52:10.725Z,41.34
2022-08-07T09:52:34.633Z,41.25
2022-08-07T09:53:15.096Z,41.01
2022-08-07T09:54:19.066Z,40.79
2022-08-07T09:55:29.900Z,40.87
2022-08-07T09:56:37.151Z,40.75
2022-08-07T09:57:21.287Z,40.74
2022-08-07T09:58:19.065Z,40.67
2022-08-07T09:59:21.917Z,40.38
2022-08-07T10:00:14.765Z,40.17
2022-08-07T10:01:53.163Z,40.10
2022-08-07T10:02:24.221Z,40.40
2022-08-07T10:04:05.963Z,40.07
2022-08-07T10:04:28.310Z,39.84
2022-08-07T10:05:21.300Z,39.67
2022-08-07T10:06:24.336Z,39.68
2022-08-07T10:07:39.927Z,39.49
2022-08-07T10:08:21.330Z,39.46
2022-08-07T10:09:23.625Z,39.19
2022-08-07T10:10:22.808Z,39.10
2022-08-07T10:12:02.432Z,39.11
2022-08-07T10:12:21.921Z,38.88
2022-08-07T10:13:55.470Z,38.83
2022-08-07T10:14:30.347Z,38.98
2022-08-07T10:15:21.306Z,39.16
2022-08-07T10:16:21.068Z,39.20
2022-08-07T10:17:21.074Z,39.22
2022-08-07T10:18:19.068Z,39.21
2022-08-07T10:19:19.066Z,39.28
2022-08-07T10:20:21.838Z,39.11
2022-08-07T10:22:12.156Z,38.90
2022-08-07T10:22:24.958Z,38.77
2022-08-07T10:24:05.346Z,38.80
2022-08-07T10:24:21.567Z,38.87
2022-08-07T10:25:22.899Z,38.71
2022-08-07T10:26:24.745Z,38.68
2022-08-07T10:27:21.316Z,38.69
2022-08-07T10:28:21.059Z,38.81
2022-08-07T10:29:21.062Z,38.72
2022-08-07T10:30:13.078Z,38.70
2022-08-07T10:31:19.061Z,38.55
2022-08-07T10:32:37.113Z,38.33
2022-08-07T10:34:04.894Z,38.35
2022-08-07T10:34:27.343Z,38.58
2022-08-07T10:35:25.478Z,38.53
2022-08-07T10:36:19.068Z,38.03
2022-08-07T10:37:26.463Z,37.90
2022-08-07T10:38:41.154Z,37.79
2022-08-07T10:39:21.376Z,37.71
2022-08-07T10:40:21.067Z,37.45
2022-08-07T10:41:46.896Z,37.42
2022-08-07T10:42:31.218Z,37.71
2022-08-07T10:43:34.129Z,37.84
2022-08-07T10:44:37.375Z,37.55
2022-08-07T10:45:44.044Z,37.56
2022-08-07T10:46:17.124Z,37.52
2022-08-07T10:47:19.061Z,37.33
2022-08-07T10:48:21.278Z,37.35
2022-08-07T10:49:24.574Z,37.56
2022-08-07T10:50:26.013Z,37.54
2022-08-07T10:51:39.264Z,37.46
2022-08-07T10:52:21.272Z,37.19
2022-08-07T10:53:23.223Z,37.12
2022-08-07T10:54:17.409Z,37.04
2022-08-07T10:55:27.059Z,37.14
2022-08-07T10:56:31.111Z,37.18
2022-08-07T10:57:33.978Z,36.82
2022-08-07T10:58:24.965Z,36.85
2022-08-07T10:59:22.062Z,36.75
2022-08-07T11:00:42.846Z,36.36
2022-08-07T11:01:22.258Z,36.12
2022-08-07T11:02:33.358Z,35.91
2022-08-07T11:03:23.085Z,36.00
2022-08-07T11:04:32.030Z,36.15
2022-08-07T11:05:21.234Z,36.29
2022-08-07T11:06:19.070Z,36.04
2022-08-07T11:07:56.869Z,35.94
2022-08-07T11:08:21.301Z,35.88
2022-08-07T11:10:09.433Z,35.94
2022-08-07T11:10:24.266Z,36.28
2022-08-07T11:11:20.963Z,36.00
2022-08-07T11:12:31.312Z,35.99
2022-08-07T11:14:43.877Z,35.91
2022-08-07T11:14:44.103Z,35.88
2022-08-07T11:15:17.654Z,35.73
2022-08-07T11:16:29.820Z,35.65
2022-08-07T11:17:23.273Z,35.67
2022-08-07T11:18:22.320Z,36.05
2022-08-07T11:19:27.094Z,35.64
2022-08-07T11:20:17.067Z,35.61
2022-08-07T11:21:19.065Z,35.67
2022-08-07T11:22:32.546Z,35.77
2022-08-07T11:23:30.342Z,35.78
2022-08-07T11:24:21.264Z,35.40
2022-08-07T11:25:17.063Z,35.25
2022-08-07T11:26:18.058Z,35.20
2022-08-07T11:27:20.717Z,34.99
2022-08-07T11:28:18.316Z,35.13
2022-08-07T11:29:41.993Z,35.08
2022-08-07T11:30:18.989Z,35.04
2022-08-07T11:31:19.056Z,35.34
2022-08-07T11:32:26.011Z,35.21
2022-08-07T11:33:55.424Z,35.25
2022-08-07T11:34:21.285Z,35.11
2022-08-07T11:35:18.057Z,35.19
2022-08-07T11:36:25.487Z,34.88
2022-08-07T11:37:24.366Z,34.90
2022-08-07T11:38:21.332Z,34.92
2022-08-07T11:39:21.226Z,34.70
2022-08-07T11:40:19.871Z,34.90
2022-08-07T11:41:22.133Z,34.57
2022-08-07T11:42:23.305Z,34.33
2022-08-07T11:43:29.520Z,34.48
2022-08-07T11:44:21.074Z,34.41
2022-08-07T11:45:23.838Z,34.33
2022-08-07T11:46:19.141Z,34.49
2022-08-07T11:47:19.065Z,34.43
2022-08-07T11:48:29.408Z,34.10
2022-08-07T11:49:50.131Z,34.05
2022-08-07T11:50:32.692Z,33.77
2022-08-07T11:51:41.644Z,33.66
2022-08-07T11:52:28.954Z,33.42
2022-08-07T11:53:21.792Z,33.60
2022-08-07T11:54:22.186Z,33.66
2022-08-07T11:56:09.619Z,33.35
2022-08-07T11:56:27.028Z,33.27
2022-08-07T11:57:52.351Z,33.29
2022-08-07T11:58:21.310Z,33.15
2022-08-07T12:00:08.370Z,33.08
2022-08-07T12:00:21.276Z,33.18
2022-08-07T12:01:23.116Z,33.14
2022-08-07T12:02:29.998Z,33.01
2022-08-07T12:03:42.284Z,32.96
2022-08-07T12:04:21.302Z,32.70
2022-08-07T12:05:28.792Z,32.28
2022-08-07T12:06:37.972Z,32.29
2022-08-07T12:07:27.184Z,32.35
2022-08-07T12:08:26.099Z,32.17
2022-08-07T12:09:23.634Z,32.21
2022-08-07T12:10:23.265Z,32.19
2022-08-07T12:11:21.516Z,31.91
2022-08-07T12:12:12.400Z,31.65
2022-08-07T12:13:36.651Z,31.69
2022-08-07T12:14:21.204Z,31.77
2022-08-07T12:15:46.702Z,31.96
2022-08-07T12:16:30.093Z,32.03
2022-08-07T12:17:33.591Z,32.13
2022-08-07T12:18:29.623Z,32.13
2022-08-07T12:19:21.631Z,32.22
2022-08-07T12:20:30.237Z,32.48
2022-08-07T12:21:55.811Z,32.30
2022-08-07T12:22:37.988Z,32.30
2022-08-07T12:23:37.221Z,32.23
2022-08-07T12:24:37.544Z,32.09
2022-08-07T12:26:21.523Z,32.02
2022-08-07T12:26:29.819Z,31.93
2022-08-07T12:27:18.256Z,31.84
2022-08-07T12:28:30.810Z,31.64
2022-08-07T12:29:37.570Z,31.74
2022-08-07T12:30:13.105Z,31.85
2022-08-07T12:31:23.559Z,31.80
2022-08-07T12:32:17.056Z,31.80
2022-08-07T12:33:23.454Z,31.90
2022-08-07T12:34:13.210Z,31.77
2022-08-07T12:35:13.060Z,31.73
2022-08-07T12:36:11.151Z,31.44
2022-08-07T12:37:27.950Z,31.54
2022-08-07T12:38:16.951Z,31.62
2022-08-07T12:39:43.853Z,31.42
2022-08-07T12:40:36.184Z,30.94
2022-08-07T12:41:13.134Z,30.80
2022-08-07T12:42:12.999Z,30.75
2022-08-07T12:43:12.061Z,30.67
2022-08-07T12:44:17.315Z,30.53
2022-08-07T12:45:19.062Z,30.54
2022-08-07T12:46:26.355Z,30.47
2022-08-07T12:47:27.100Z,30.45
2022-08-07T12:48:28.075Z,30.29
2022-08-07T12:49:39.884Z,30.31
2022-08-07T12:50:39.346Z,30.20
2022-08-07T12:51:20.322Z,30.29
2022-08-07T12:52:18.090Z,30.18